createdAt,value
2024-04-24T00:01:25.651Z,6.97
2024-04-24T00:03:52.422Z,6.67
2024-04-24T00:06:19.450Z,8.67
2024-04-24T00:08:46.215Z,7.50
2024-04-24T00:11:13.016Z,6.00
2024-04-24T00:13:39.798Z,7.17
2024-04-24T00:16:06.869Z,8.33
2024-04-24T00:18:33.668Z,6.63
2024-04-24T00:21:00.399Z,6.73
2024-04-24T00:23:27.510Z,8.23
2024-04-24T00:25:58.159Z,9.67
2024-04-24T00:28:24.904Z,6.70
2024-04-24T00:30:58.172Z,6.20
2024-04-24T00:33:25.031Z,8.80
2024-04-24T00:35:51.947Z,10.07
2024-04-24T00:38:18.746Z,7.30
2024-04-24T00:40:45.573Z,8.47
2024-04-24T00:43:12.308Z,8.00
2024-04-24T00:45:39.423Z,8.30
2024-04-24T00:48:07.627Z,8.87
2024-04-24T00:50:35.716Z,8.53
2024-04-24T00:53:03.876Z,8.60
2024-04-24T00:55:31.237Z,7.77
2024-04-24T00:57:58.211Z,8.17
2024-04-24T01:00:25.611Z,6.13
2024-04-24T01:02:52.696Z,7.47
2024-04-24T01:05:19.590Z,8.67
2024-04-24T01:07:46.470Z,8.10
2024-04-24T01:10:17.752Z,7.93
2024-04-24T01:12:49.590Z,8.10
2024-04-24T01:15:17.727Z,6.53
2024-04-24T01:17:48.992Z,6.87
2024-04-24T01:20:19.475Z,9.37
2024-04-24T01:22:52.528Z,7.47
2024-04-24T01:25:27.782Z,6.53
2024-04-24T01:27:54.564Z,8.20
2024-04-24T01:30:21.297Z,5.93
2024-04-24T01:32:48.117Z,8.47
2024-04-24T01:35:15.213Z,9.43
2024-04-24T01:37:41.981Z,7.77
2024-04-24T01:40:09.043Z,7.70
2024-04-24T01:42:35.862Z,8.90
2024-04-24T01:45:03.776Z,8.30
2024-04-24T01:47:30.997Z,10.77
2024-04-24T01:49:57.804Z,8.30
2024-04-24T01:52:24.495Z,9.93
2024-04-24T01:54:51.884Z,9.53
2024-04-24T01:57:18.835Z,10.37
2024-04-24T01:59:47.384Z,11.10
2024-04-24T02:02:14.150Z,7.33
2024-04-24T02:04:41.444Z,9.50
2024-04-24T02:07:08.516Z,8.07
2024-04-24T02:09:35.701Z,9.70
2024-04-24T02:12:10.195Z,9.43
2024-04-24T02:14:42.638Z,9.63
2024-04-24T02:17:10.330Z,10.47
2024-04-24T02:19:37.498Z,10.47
2024-04-24T02:22:04.351Z,8.50
2024-04-24T02:24:49.782Z,10.13
2024-04-24T02:27:17.290Z,8.73
2024-04-24T02:29:51.833Z,8.47
2024-04-24T02:32:23.214Z,8.57
2024-04-24T02:34:50.334Z,9.00
2024-04-24T02:37:18.008Z,8.57
2024-04-24T02:39:45.549Z,12.97
2024-04-24T02:42:12.627Z,9.63
2024-04-24T02:44:39.890Z,9.53
2024-04-24T02:47:06.917Z,9.83
2024-04-24T02:49:33.836Z,8.97
2024-04-24T02:52:00.711Z,13.37
2024-04-24T02:54:28.573Z,8.10
2024-04-24T02:56:55.274Z,12.90
2024-04-24T02:59:22.083Z,7.60
2024-04-24T03:01:48.981Z,9.60
2024-04-24T03:04:15.704Z,11.17
2024-04-24T03:06:45.303Z,9.03
2024-04-24T03:09:13.204Z,7.37
2024-04-24T03:11:41.239Z,11.60
2024-04-24T03:14:09.474Z,9.80
2024-04-24T03:16:36.975Z,8.90
2024-04-24T03:19:05.123Z,9.43
2024-04-24T03:21:32.365Z,13.50
2024-04-24T03:23:59.420Z,9.43
2024-04-24T03:26:27.942Z,11.77
2024-04-24T03:28:56.580Z,8.10
2024-04-24T03:31:23.815Z,8.20
2024-04-24T03:33:51.822Z,7.90
2024-04-24T03:36:18.958Z,7.93
2024-04-24T03:38:45.717Z,9.67
2024-04-24T03:41:12.823Z,8.57
2024-04-24T03:43:40.507Z,9.50
2024-04-24T03:46:07.614Z,8.40
2024-04-24T03:48:34.785Z,10.07
2024-04-24T03:51:02.026Z,7.37
2024-04-24T03:53:28.874Z,9.93
2024-04-24T03:55:55.705Z,12.63
2024-04-24T03:58:22.421Z,11.13
2024-04-24T04:00:49.568Z,11.50
2024-04-24T04:03:16.526Z,10.73
2024-04-24T04:05:43.242Z,9.97
2024-04-24T04:08:10.069Z,8.23
2024-04-24T04:10:36.831Z,9.30
2024-04-24T04:13:04.656Z,9.13
2024-04-24T04:15:31.668Z,8.27
2024-04-24T04:17:58.580Z,8.73
2024-04-24T04:20:25.549Z,11.37
2024-04-24T04:22:54.825Z,11.83
2024-04-24T04:25:22.087Z,9.60
2024-04-24T04:27:49.707Z,9.07
2024-04-24T04:30:16.700Z,13.93
2024-04-24T04:32:44.144Z,8.93
2024-04-24T04:35:11.532Z,10.30
2024-04-24T04:37:39.643Z,12.30
2024-04-24T04:40:07.803Z,9.10
2024-04-24T04:42:34.875Z,9.27
2024-04-24T04:45:01.812Z,10.07
2024-04-24T04:47:30.428Z,12.83
2024-04-24T04:49:57.252Z,15.10
2024-04-24T04:52:23.960Z,9.57
2024-04-24T04:54:51.404Z,7.90
2024-04-24T04:57:18.153Z,8.83
2024-04-24T04:59:46.221Z,9.43
2024-04-24T05:02:13.385Z,10.60
2024-04-24T05:04:40.242Z,8.63
2024-04-24T05:07:07.382Z,11.23
2024-04-24T05:09:37.528Z,11.50
2024-04-24T05:12:07.292Z,8.47
2024-04-24T05:14:36.218Z,9.27
2024-04-24T05:17:03.643Z,7.97
2024-04-24T05:19:31.370Z,8.53
2024-04-24T05:21:58.604Z,9.77
2024-04-24T05:24:26.278Z,8.23
2024-04-24T05:27:12.263Z,7.80
2024-04-24T05:29:40.080Z,8.77
2024-04-24T05:32:07.999Z,8.33
2024-04-24T05:34:36.030Z,14.33
2024-04-24T05:37:03.056Z,8.60
2024-04-24T05:39:31.301Z,9.30
2024-04-24T05:41:58.243Z,7.60
2024-04-24T05:44:28.921Z,7.80
2024-04-24T05:46:56.242Z,8.07
2024-04-24T05:49:23.742Z,8.07
2024-04-24T05:51:51.575Z,8.80
2024-04-24T05:54:18.875Z,14.73
2024-04-24T05:56:45.612Z,9.90
2024-04-24T05:59:14.597Z,11.13
2024-04-24T06:01:42.330Z,7.37
2024-04-24T06:04:09.685Z,9.20
2024-04-24T06:06:37.515Z,8.37
2024-04-24T06:09:05.167Z,7.63
2024-04-24T06:11:32.419Z,8.67
2024-04-24T06:14:00.443Z,8.40
2024-04-24T06:16:27.277Z,12.40
2024-04-24T06:18:54.916Z,8.33
2024-04-24T06:21:22.042Z,11.13
2024-04-24T06:23:49.917Z,9.33
2024-04-24T06:26:17.976Z,10.13
2024-04-24T06:28:45.643Z,10.73
2024-04-24T06:31:13.226Z,9.03
2024-04-24T06:33:40.744Z,11.30
2024-04-24T06:36:08.304Z,10.67
2024-04-24T06:38:35.207Z,9.37
2024-04-24T06:41:02.172Z,11.73
2024-04-24T06:43:30.711Z,12.73
2024-04-24T06:45:58.639Z,10.20
2024-04-24T06:48:26.030Z,10.27
2024-04-24T06:50:58.820Z,10.23
2024-04-24T06:53:26.864Z,10.63
2024-04-24T06:56:00.309Z,9.90
2024-04-24T06:58:30.278Z,11.80
2024-04-24T07:00:58.422Z,11.63
2024-04-24T07:03:26.239Z,11.77
2024-04-24T07:05:53.731Z,16.83
2024-04-24T07:08:23.640Z,13.80
2024-04-24T07:10:53.348Z,14.03
2024-04-24T07:13:21.754Z,13.83
2024-04-24T07:15:48.504Z,11.30
2024-04-24T07:18:15.325Z,10.67
2024-04-24T07:20:43.434Z,13.57
2024-04-24T07:23:11.923Z,11.20
2024-04-24T07:25:39.657Z,10.30
2024-04-24T07:28:08.506Z,10.60
2024-04-24T07:30:36.374Z,12.97
2024-04-24T07:33:03.283Z,20.50
2024-04-24T07:35:30.202Z,13.80
2024-04-24T07:37:57.682Z,18.27
2024-04-24T07:40:24.908Z,16.80
2024-04-24T07:42:53.401Z,14.60
2024-04-24T07:45:20.413Z,13.03
2024-04-24T07:47:47.457Z,19.57
2024-04-24T07:50:14.680Z,14.80
2024-04-24T07:52:41.471Z,15.47
2024-04-24T07:55:08.553Z,14.67
2024-04-24T07:57:35.571Z,12.67
2024-04-24T08:00:02.668Z,16.10
2024-04-24T08:02:39.014Z,11.77
2024-04-24T08:05:06.688Z,11.07
2024-04-24T08:07:36.478Z,14.03
2024-04-24T08:10:03.636Z,12.73
2024-04-24T08:12:30.921Z,14.53
2024-04-24T08:14:58.856Z,13.37
2024-04-24T08:17:26.199Z,16.63
2024-04-24T08:19:53.738Z,13.70
2024-04-24T08:22:20.981Z,15.03
2024-04-24T08:24:48.066Z,11.33
2024-04-24T08:27:16.066Z,15.20
2024-04-24T08:29:43.284Z,12.73
2024-04-24T08:32:10.367Z,14.90
2024-04-24T08:34:37.581Z,11.47
2024-04-24T08:37:04.627Z,11.80
2024-04-24T08:39:32.530Z,11.57
2024-04-24T08:42:00.581Z,12.73
2024-04-24T08:44:32.706Z,15.53
2024-04-24T08:47:01.476Z,13.27
2024-04-24T08:49:32.976Z,12.17
2024-04-24T08:52:02.350Z,13.87
2024-04-24T08:54:31.101Z,12.07
2024-04-24T08:57:01.540Z,11.93
2024-04-24T08:59:30.543Z,14.73
2024-04-24T09:02:09.026Z,14.23
2024-04-24T09:04:37.632Z,10.33
2024-04-24T09:07:05.053Z,10.93
2024-04-24T09:09:33.433Z,11.60
2024-04-24T09:12:06.956Z,17.57
2024-04-24T09:14:34.744Z,16.83
2024-04-24T09:17:03.714Z,12.03
2024-04-24T09:19:32.979Z,16.67
2024-04-24T09:22:01.307Z,12.67
2024-04-24T09:24:28.621Z,16.43
2024-04-24T09:26:57.255Z,12.20
2024-04-24T09:29:24.318Z,18.33
2024-04-24T09:31:51.307Z,13.53
2024-04-24T09:34:18.497Z,13.00
2024-04-24T09:36:48.390Z,14.83
2024-04-24T09:39:17.219Z,13.30
2024-04-24T09:41:47.802Z,10.23
2024-04-24T09:44:16.111Z,12.77
2024-04-24T09:46:55.173Z,14.53
2024-04-24T09:49:22.703Z,13.73
2024-04-24T09:51:51.517Z,11.53
2024-04-24T09:54:19.194Z,12.40
2024-04-24T09:56:48.032Z,11.70
2024-04-24T09:59:19.018Z,12.83
2024-04-24T10:01:55.035Z,15.83
2024-04-24T10:04:24.591Z,12.87
2024-04-24T10:06:52.197Z,10.10
2024-04-24T10:09:24.434Z,9.60
2024-04-24T10:12:05.962Z,9.20
2024-04-24T10:14:35.894Z,10.20
2024-04-24T10:17:03.795Z,7.70
2024-04-24T10:19:31.913Z,6.23
2024-04-24T10:22:00.168Z,7.67
2024-04-24T10:24:28.514Z,8.00
2024-04-24T10:26:56.228Z,8.30
2024-04-24T10:29:24.222Z,8.53
2024-04-24T10:31:55.232Z,6.27
2024-04-24T10:34:25.079Z,5.47
2024-04-24T10:36:53.199Z,6.47
2024-04-24T10:39:20.787Z,5.93
2024-04-24T10:41:48.657Z,6.40
2024-04-24T10:44:16.979Z,6.70
2024-04-24T10:46:46.225Z,6.23
2024-04-24T10:49:13.125Z,5.67
2024-04-24T10:51:47.979Z,6.30
2024-04-24T10:54:15.701Z,6.83
2024-04-24T10:56:43.912Z,12.80
2024-04-24T10:59:11.698Z,15.87
2024-04-24T11:01:52.376Z,8.80
2024-04-24T11:04:27.539Z,13.47
2024-04-24T11:06:54.964Z,8.87
2024-04-24T11:09:22.225Z,15.00
2024-04-24T11:11:55.308Z,11.10
2024-04-24T11:14:22.501Z,16.60
2024-04-24T11:16:59.619Z,10.77
2024-04-24T11:19:26.697Z,12.40
2024-04-24T11:21:53.829Z,8.00
2024-04-24T11:24:34.268Z,9.03
2024-04-24T11:27:02.088Z,7.73
2024-04-24T11:29:37.045Z,7.33
2024-04-24T11:32:05.720Z,5.47
2024-04-24T11:34:33.578Z,6.03
2024-04-24T11:37:00.569Z,6.60
2024-04-24T11:39:27.402Z,5.97
2024-04-24T11:41:56.322Z,6.00
2024-04-24T11:44:23.398Z,8.23
2024-04-24T11:46:50.229Z,7.27
2024-04-24T11:49:19.984Z,6.20
2024-04-24T11:51:48.136Z,5.03
2024-04-24T11:54:14.882Z,7.37
2024-04-24T11:56:43.291Z,5.17
2024-04-24T11:59:10.634Z,5.60
2024-04-24T12:01:40.038Z,4.33
2024-04-24T12:04:08.146Z,5.63
2024-04-24T12:06:43.281Z,6.83
2024-04-24T12:09:11.741Z,4.53
2024-04-24T12:11:46.053Z,5.00
2024-04-24T12:14:15.966Z,5.30
2024-04-24T12:16:43.837Z,5.00
2024-04-24T12:19:10.862Z,5.60
2024-04-24T12:21:37.685Z,5.50
2024-04-24T12:24:04.619Z,5.13
2024-04-24T12:26:31.748Z,6.03
2024-04-24T12:28:58.533Z,4.83
2024-04-24T12:31:25.376Z,7.83
2024-04-24T12:33:52.442Z,4.97
2024-04-24T12:36:19.295Z,4.87
2024-04-24T12:38:46.041Z,5.40
2024-04-24T12:41:12.808Z,5.67
2024-04-24T12:43:39.602Z,10.87
2024-04-24T12:46:07.298Z,6.03
2024-04-24T12:48:35.125Z,6.00
2024-04-24T12:51:07.494Z,7.07
2024-04-24T12:53:34.369Z,6.80
2024-04-24T12:56:01.098Z,6.87
2024-04-24T12:58:27.844Z,5.07
2024-04-24T13:00:54.624Z,6.13
2024-04-24T13:03:21.663Z,5.50
2024-04-24T13:05:48.432Z,7.53
2024-04-24T13:08:15.231Z,8.13
2024-04-24T13:10:43.035Z,8.07
2024-04-24T13:13:09.806Z,5.00
2024-04-24T13:15:36.584Z,6.13
2024-04-24T13:18:04.431Z,7.33
2024-04-24T13:20:31.391Z,4.67
2024-04-24T13:22:58.219Z,6.20
2024-04-24T13:25:24.972Z,5.03
2024-04-24T13:27:51.656Z,3.80
2024-04-24T13:30:18.547Z,4.10
2024-04-24T13:32:45.396Z,7.47
2024-04-24T13:35:12.283Z,5.40
2024-04-24T13:37:39.137Z,3.13
2024-04-24T13:40:06.547Z,1.83
2024-04-24T13:42:33.448Z,1.20
2024-04-24T13:45:00.377Z,1.50
2024-04-24T13:47:28.824Z,1.50
2024-04-24T13:49:55.737Z,1.60
2024-04-24T13:52:22.455Z,3.43
2024-04-24T13:54:49.395Z,3.27
2024-04-24T13:57:16.270Z,3.27
2024-04-24T13:59:43.128Z,2.43
2024-04-24T14:02:09.912Z,2.17
2024-04-24T14:04:36.668Z,3.23
2024-04-24T14:07:03.483Z,5.53
2024-04-24T14:09:30.233Z,2.50
2024-04-24T14:11:56.953Z,3.37
2024-04-24T14:14:24.055Z,2.63
2024-04-24T14:16:50.967Z,3.33
2024-04-24T14:19:17.847Z,4.37
2024-04-24T14:21:44.546Z,3.17
2024-04-24T14:24:11.251Z,4.43
2024-04-24T14:26:37.983Z,2.77
2024-04-24T14:29:04.775Z,3.53
2024-04-24T14:31:31.562Z,4.13
2024-04-24T14:33:58.233Z,4.50
2024-04-24T14:36:24.930Z,4.60
2024-04-24T14:38:54.426Z,5.20
2024-04-24T14:41:21.139Z,3.07
2024-04-24T14:43:48.031Z,3.20
2024-04-24T14:46:14.948Z,11.17
2024-04-24T14:48:41.981Z,1.97
2024-04-24T14:51:08.869Z,9.93
2024-04-24T14:53:36.138Z,2.20
2024-04-24T14:56:05.105Z,1.80
2024-04-24T14:58:31.833Z,3.00
2024-04-24T15:00:58.754Z,1.83
2024-04-24T15:03:25.707Z,2.53
2024-04-24T15:05:52.625Z,3.93
2024-04-24T15:08:19.455Z,1.93
2024-04-24T15:10:46.266Z,2.93
2024-04-24T15:13:13.477Z,3.73
2024-04-24T15:15:44.542Z,1.07
2024-04-24T15:18:11.371Z,2.90
2024-04-24T15:20:39.266Z,4.37
2024-04-24T15:23:06.052Z,0.73
2024-04-24T15:25:32.812Z,1.90
2024-04-24T15:27:59.773Z,0.90
2024-04-24T15:30:29.342Z,3.13
2024-04-24T15:32:56.154Z,0.93
2024-04-24T15:35:22.924Z,5.10
2024-04-24T15:37:50.853Z,4.60
2024-04-24T15:40:17.579Z,5.00
2024-04-24T15:42:44.306Z,3.57
2024-04-24T15:45:11.098Z,7.23
2024-04-24T15:47:38.010Z,4.00
2024-04-24T15:50:05.231Z,5.07
2024-04-24T15:52:31.992Z,2.20
2024-04-24T15:54:59.932Z,2.27
2024-04-24T15:57:26.690Z,2.30
2024-04-24T15:59:53.439Z,1.47
2024-04-24T16:02:20.262Z,3.50
2024-04-24T16:04:47.009Z,9.87
2024-04-24T16:07:13.933Z,7.10
2024-04-24T16:09:40.752Z,1.40
2024-04-24T16:12:09.153Z,2.60
2024-04-24T16:14:36.057Z,1.13
2024-04-24T16:17:04.853Z,2.30
2024-04-24T16:19:31.714Z,1.30
2024-04-24T16:21:58.503Z,0.93
2024-04-24T16:24:25.374Z,1.43
2024-04-24T16:26:52.115Z,2.20
2024-04-24T16:29:18.938Z,1.67
2024-04-24T16:31:45.673Z,4.87
2024-04-24T16:34:12.493Z,2.20
2024-04-24T16:36:39.231Z,1.73
2024-04-24T16:39:06.080Z,2.00
2024-04-24T16:41:32.955Z,3.43
2024-04-24T16:43:59.925Z,3.67
2024-04-24T16:46:27.960Z,1.73
2024-04-24T16:48:54.795Z,2.70
2024-04-24T16:51:21.565Z,2.23
2024-04-24T16:53:48.405Z,1.43
2024-04-24T16:56:18.230Z,2.33
2024-04-24T16:58:45.085Z,3.20
2024-04-24T17:01:13.513Z,1.80
2024-04-24T17:03:40.259Z,2.00
2024-04-24T17:06:07.100Z,1.50
2024-04-24T17:08:34.016Z,2.03
2024-04-24T17:11:00.911Z,2.63
2024-04-24T17:13:27.904Z,3.17
2024-04-24T17:15:54.661Z,2.53
2024-04-24T17:18:21.669Z,2.70
2024-04-24T17:20:49.081Z,4.03
2024-04-24T17:23:15.862Z,13.10
2024-04-24T17:25:42.567Z,5.57
2024-04-24T17:28:09.316Z,2.77
2024-04-24T17:30:36.030Z,3.07
2024-04-24T17:33:03.133Z,3.80
2024-04-24T17:35:30.044Z,2.27
2024-04-24T17:37:56.976Z,2.73
2024-04-24T17:40:24.183Z,1.87
2024-04-24T17:42:50.916Z,4.90
2024-04-24T17:45:17.701Z,3.97
2024-04-24T17:47:44.594Z,4.37
2024-04-24T17:50:11.426Z,2.00
2024-04-24T17:52:38.344Z,3.50
2024-04-24T17:55:06.510Z,2.47
2024-04-24T17:57:35.775Z,3.83
2024-04-24T18:00:03.997Z,2.23
2024-04-24T18:02:31.548Z,1.77
2024-04-24T18:05:01.640Z,3.47
2024-04-24T18:07:32.264Z,3.17
2024-04-24T18:09:59.048Z,2.00
2024-04-24T18:12:25.875Z,2.20
2024-04-24T18:14:52.595Z,3.80
2024-04-24T18:17:20.143Z,3.37
2024-04-24T18:19:46.859Z,2.27
2024-04-24T18:22:13.928Z,3.60
2024-04-24T18:24:42.307Z,3.13
2024-04-24T18:27:09.128Z,3.13
2024-04-24T18:29:36.347Z,3.07
2024-04-24T18:32:03.233Z,9.37
2024-04-24T18:34:30.015Z,14.90
2024-04-24T18:36:56.722Z,18.17
2024-04-24T18:39:23.645Z,7.97
2024-04-24T18:41:50.504Z,24.33
2024-04-24T18:44:17.366Z,8.40
2024-04-24T18:46:44.090Z,13.77
2024-04-24T18:49:10.930Z,7.10
2024-04-24T18:51:37.692Z,23.07
2024-04-24T18:54:04.537Z,21.57
2024-04-24T18:56:31.363Z,27.73
2024-04-24T18:58:58.324Z,12.27
2024-04-24T19:01:25.131Z,8.67
2024-04-24T19:03:51.867Z,4.43
2024-04-24T19:06:18.672Z,3.97
2024-04-24T19:08:46.140Z,8.47
2024-04-24T19:11:12.979Z,10.53
2024-04-24T19:13:39.836Z,6.73
2024-04-24T19:16:06.861Z,4.40
2024-04-24T19:18:33.595Z,4.20
2024-04-24T19:21:05.839Z,5.77
2024-04-24T19:23:32.616Z,8.10
2024-04-24T19:25:59.497Z,7.70
2024-04-24T19:28:26.299Z,7.53
2024-04-24T19:30:52.985Z,4.00
2024-04-24T19:33:20.409Z,7.40
2024-04-24T19:35:49.162Z,3.17
2024-04-24T19:38:17.221Z,2.37
2024-04-24T19:40:46.963Z,2.03
2024-04-24T19:43:13.720Z,2.27
2024-04-24T19:45:40.486Z,10.17
2024-04-24T19:48:07.841Z,9.30
2024-04-24T19:50:37.677Z,14.13
2024-04-24T19:53:04.637Z,12.07
2024-04-24T19:55:35.832Z,5.70
2024-04-24T19:58:02.987Z,9.20
2024-04-24T20:00:29.928Z,10.13
2024-04-24T20:02:56.746Z,7.00
2024-04-24T20:05:23.522Z,5.80
2024-04-24T20:07:50.465Z,8.97
2024-04-24T20:10:17.337Z,13.40
2024-04-24T20:12:44.097Z,8.33
2024-04-24T20:15:10.868Z,5.10
2024-04-24T20:17:37.773Z,8.13
2024-04-24T20:20:05.079Z,4.73
2024-04-24T20:22:31.779Z,3.97
2024-04-24T20:24:58.939Z,1.73
2024-04-24T20:27:25.665Z,3.57
2024-04-24T20:29:53.052Z,3.37
2024-04-24T20:32:20.103Z,2.03
2024-04-24T20:34:46.888Z,5.43
2024-04-24T20:37:13.608Z,3.17
2024-04-24T20:39:41.738Z,5.20
2024-04-24T20:42:11.085Z,5.57
2024-04-24T20:44:38.776Z,5.33
2024-04-24T20:47:05.590Z,6.33
2024-04-24T20:49:32.499Z,5.80
2024-04-24T20:51:59.294Z,5.33
2024-04-24T20:54:26.056Z,6.87
2024-04-24T20:56:52.790Z,7.23
2024-04-24T20:59:21.249Z,7.93
2024-04-24T21:01:48.081Z,4.60
2024-04-24T21:04:14.852Z,6.67
2024-04-24T21:06:41.567Z,5.33
2024-04-24T21:09:08.263Z,17.57
2024-04-24T21:11:34.964Z,7.97
2024-04-24T21:14:02.271Z,7.37
2024-04-24T21:16:29.023Z,8.53
2024-04-24T21:18:55.905Z,4.83
2024-04-24T21:21:23.453Z,4.77
2024-04-24T21:23:54.090Z,7.37
2024-04-24T21:26:22.533Z,8.73
2024-04-24T21:28:49.381Z,5.27
2024-04-24T21:31:16.125Z,3.93
2024-04-24T21:33:43.005Z,5.23
2024-04-24T21:36:09.830Z,4.97
2024-04-24T21:38:36.759Z,7.40
2024-04-24T21:41:07.529Z,5.10
2024-04-24T21:43:34.321Z,6.90
2024-04-24T21:46:06.662Z,5.50
2024-04-24T21:48:33.951Z,9.03
2024-04-24T21:51:00.672Z,11.13
2024-04-24T21:53:27.692Z,6.27
2024-04-24T21:55:58.143Z,5.00
2024-04-24T21:58:25.378Z,8.00
2024-04-24T22:00:52.235Z,12.57
2024-04-24T22:03:19.586Z,10.77
2024-04-24T22:05:46.551Z,10.10
2024-04-24T22:08:13.429Z,5.23
2024-04-24T22:10:40.805Z,4.47
2024-04-24T22:13:07.643Z,3.20
2024-04-24T22:15:36.666Z,5.37
2024-04-24T22:18:05.455Z,8.57
2024-04-24T22:20:32.360Z,12.60
2024-04-24T22:22:59.299Z,9.37
2024-04-24T22:25:27.044Z,7.77
2024-04-24T22:27:53.797Z,9.67
2024-04-24T22:30:20.565Z,8.13
2024-04-24T22:32:47.498Z,6.30
2024-04-24T22:35:14.353Z,6.83
2024-04-24T22:37:41.265Z,7.77
2024-04-24T22:40:08.351Z,6.07
2024-04-24T22:42:35.052Z,7.50
2024-04-24T22:45:01.766Z,4.63
2024-04-24T22:47:28.564Z,4.93
2024-04-24T22:49:55.407Z,7.10
2024-04-24T22:52:22.092Z,5.13
2024-04-24T22:54:49.508Z,4.33
2024-04-24T22:57:16.244Z,4.10
2024-04-24T22:59:43.001Z,4.57
2024-04-24T23:02:09.790Z,5.83
2024-04-24T23:04:36.556Z,5.37
2024-04-24T23:07:03.453Z,4.60
2024-04-24T23:09:30.221Z,5.23
2024-04-24T23:11:57.033Z,3.87
2024-04-24T23:14:26.405Z,4.83
2024-04-24T23:16:54.067Z,5.10
2024-04-24T23:19:21.484Z,5.40
2024-04-24T23:21:48.981Z,5.33
2024-04-24T23:24:16.408Z,5.23
2024-04-24T23:26:47.515Z,4.70
2024-04-24T23:29:15.017Z,4.30
2024-04-24T23:31:41.808Z,10.47
2024-04-24T23:34:08.623Z,9.23
2024-04-24T23:36:35.301Z,6.00
2024-04-24T23:39:06.064Z,4.70
2024-04-24T23:41:32.739Z,3.80
2024-04-24T23:43:59.453Z,4.17
2024-04-24T23:46:26.140Z,4.13
2024-04-24T23:48:53.480Z,4.77
2024-04-24T23:51:20.133Z,3.13
2024-04-24T23:53:48.711Z,3.93
2024-04-24T23:56:18.931Z,4.87
2024-04-24T23:58:45.854Z,5.23
